Ana Sayfa
METAR-TAF:

METAR-TAF

Havaalanları :

Orange County Airport

Montgomery, New York, Amerika Birleşik Devletleri

Enlem: 41-30-33N, Boylam: 074-15-54W, yükseklik: 111 m

Güncel hava durumu gözlemi

Rapor saat 19:54 UTC de 37 dakika önce yapıldı.
Rüzgar güney/güneybatıdan 7 kt
Sıcaklık 11°C
Nem 24%
Basınç 1018 hPa
Görüş mesafesi: 16.1 km
Açık gökyüzü

METAR: KMGJ 231954Z AUTO 21007KT 10SM CLR 11/M09 A3005 RMK AO2 SLP179 T01061089

Saat: 15:31 (20:31 UTC)


TAF: eksik

4.000'den fazla havaalanı için hava durumu gözlemleri ve tahminleri (METAR ve TAF raporları).

Kullanılabilir istasyonlar harita üzerinde sarı ve kırmızı noktalarla gösterilir.

İstasyonun adını görmek için fareyi noktanın üzerinde gezdirin.

Sonrasında hava gözlem ve tahminlerini görmek için tıklayın.

Haritayı değiştirmek için: yaklaştırmak için siyah artı işaretli yeşil düğmeye ve uzaklaştırmak için de eksi işaretli düğmeye hızla tıklayın; bitişik haritalar için yeşil okları kullanın.


METAR-TAF: